sensor_id;sensor_type;location;lat;lon;timestamp;temperature;humidity
52297;DHT22;38244;51.046;17.038;2022-07-29T00:02:18;16.37;52.14
52297;DHT22;38244;51.046;17.038;2022-07-29T00:04:44;16.34;52.38
52297;DHT22;38244;51.046;17.038;2022-07-29T00:07:10;16.28;52.14
52297;DHT22;38244;51.046;17.038;2022-07-29T00:09:37;16.26;52.30
52297;DHT22;38244;51.046;17.038;2022-07-29T00:12:03;16.23;52.61
52297;DHT22;38244;51.046;17.038;2022-07-29T00:14:30;16.19;52.73
52297;DHT22;38244;51.046;17.038;2022-07-29T00:16:56;16.16;52.70
52297;DHT22;38244;51.046;17.038;2022-07-29T00:19:22;16.09;52.91
52297;DHT22;38244;51.046;17.038;2022-07-29T00:21:48;16.08;53.25
52297;DHT22;38244;51.046;17.038;2022-07-29T00:24:15;16.05;52.94
52297;DHT22;38244;51.046;17.038;2022-07-29T00:26:41;16.02;53.18
52297;DHT22;38244;51.046;17.038;2022-07-29T00:29:07;16.02;53.00
52297;DHT22;38244;51.046;17.038;2022-07-29T00:31:33;15.94;53.29
52297;DHT22;38244;51.046;17.038;2022-07-29T00:34:00;15.92;53.82
52297;DHT22;38244;51.046;17.038;2022-07-29T00:36:26;15.92;53.53
52297;DHT22;38244;51.046;17.038;2022-07-29T00:39:11;15.86;53.93
52297;DHT22;38244;51.046;17.038;2022-07-29T00:41:37;15.82;54.00
52297;DHT22;38244;51.046;17.038;2022-07-29T00:44:03;15.81;54.00
52297;DHT22;38244;51.046;17.038;2022-07-29T00:46:29;15.78;53.95
52297;DHT22;38244;51.046;17.038;2022-07-29T00:48:56;15.76;54.41
52297;DHT22;38244;51.046;17.038;2022-07-29T00:51:22;15.72;54.56
52297;DHT22;38244;51.046;17.038;2022-07-29T00:53:50;15.69;54.49
52297;DHT22;38244;51.046;17.038;2022-07-29T00:56:17;15.71;54.65
52297;DHT22;38244;51.046;17.038;2022-07-29T00:58:47;15.67;54.88
52297;DHT22;38244;51.046;17.038;2022-07-29T01:01:14;15.65;55.44
52297;DHT22;38244;51.046;17.038;2022-07-29T01:03:40;15.69;55.16
52297;DHT22;38244;51.046;17.038;2022-07-29T01:06:06;15.67;54.72
52297;DHT22;38244;51.046;17.038;2022-07-29T01:08:32;15.64;55.20
52297;DHT22;38244;51.046;17.038;2022-07-29T01:11:00;15.64;55.09
52297;DHT22;38244;51.046;17.038;2022-07-29T01:13:27;15.60;55.43
52297;DHT22;38244;51.046;17.038;2022-07-29T01:15:59;15.60;55.07
52297;DHT22;38244;51.046;17.038;2022-07-29T01:18:38;15.58;55.58
52297;DHT22;38244;51.046;17.038;2022-07-29T01:21:27;15.57;55.52
52297;DHT22;38244;51.046;17.038;2022-07-29T01:29:35;15.47;56.00
52297;DHT22;38244;51.046;17.038;2022-07-29T01:37:29;15.39;56.56
52297;DHT22;38244;51.046;17.038;2022-07-29T01:39:58;15.34;56.76
52297;DHT22;38244;51.046;17.038;2022-07-29T01:45:37;15.30;56.99
52297;DHT22;38244;51.046;17.038;2022-07-29T01:53:37;15.19;57.36
52297;DHT22;38244;51.046;17.038;2022-07-29T01:56:08;15.15;57.67
52297;DHT22;38244;51.046;17.038;2022-07-29T01:58:38;15.12;57.95
52297;DHT22;38244;51.046;17.038;2022-07-29T02:01:05;15.07;57.80
52297;DHT22;38244;51.046;17.038;2022-07-29T02:03:33;15.07;58.26
52297;DHT22;38244;51.046;17.038;2022-07-29T02:06:08;15.03;58.31
52297;DHT22;38244;51.046;17.038;2022-07-29T02:08:37;15.05;58.23
52297;DHT22;38244;51.046;17.038;2022-07-29T02:11:05;15.03;58.40
52297;DHT22;38244;51.046;17.038;2022-07-29T02:13:35;15.02;58.56
52297;DHT22;38244;51.046;17.038;2022-07-29T02:16:05;14.96;58.27
52297;DHT22;38244;51.046;17.038;2022-07-29T02:18:34;14.96;58.76
52297;DHT22;38244;51.046;17.038;2022-07-29T02:21:03;14.98;58.21
52297;DHT22;38244;51.046;17.038;2022-07-29T02:23:31;14.95;58.76
52297;DHT22;38244;51.046;17.038;2022-07-29T02:25:59;14.92;58.90
52297;DHT22;38244;51.046;17.038;2022-07-29T02:28:28;14.88;59.08
52297;DHT22;38244;51.046;17.038;2022-07-29T02:31:01;14.87;59.50
52297;DHT22;38244;51.046;17.038;2022-07-29T02:33:30;14.87;59.44
52297;DHT22;38244;51.046;17.038;2022-07-29T02:35:58;14.82;59.53
52297;DHT22;38244;51.046;17.038;2022-07-29T02:38:26;14.79;59.53
52297;DHT22;38244;51.046;17.038;2022-07-29T02:41:23;14.74;59.86
52297;DHT22;38244;51.046;17.038;2022-07-29T02:43:48;14.77;59.83
52297;DHT22;38244;51.046;17.038;2022-07-29T02:46:36;14.75;59.98
52297;DHT22;38244;51.046;17.038;2022-07-29T02:57:42;14.70;59.94
52297;DHT22;38244;51.046;17.038;2022-07-29T03:00:10;14.68;60.35
52297;DHT22;38244;51.046;17.038;2022-07-29T03:02:45;14.67;60.42
52297;DHT22;38244;51.046;17.038;2022-07-29T03:05:18;14.68;60.38
52297;DHT22;38244;51.046;17.038;2022-07-29T03:08:01;14.67;60.69
52297;DHT22;38244;51.046;17.038;2022-07-29T03:10:26;14.64;60.94
52297;DHT22;38244;51.046;17.038;2022-07-29T03:12:55;14.60;61.14
52297;DHT22;38244;51.046;17.038;2022-07-29T03:15:22;14.61;61.08
52297;DHT22;38244;51.046;17.038;2022-07-29T03:17:50;14.61;60.78
52297;DHT22;38244;51.046;17.038;2022-07-29T03:20:18;14.66;61.09
52297;DHT22;38244;51.046;17.038;2022-07-29T03:22:44;14.64;61.04
52297;DHT22;38244;51.046;17.038;2022-07-29T03:25:18;14.70;60.90
52297;DHT22;38244;51.046;17.038;2022-07-29T03:27:45;14.72;61.02
52297;DHT22;38244;51.046;17.038;2022-07-29T03:30:13;14.75;61.13
52297;DHT22;38244;51.046;17.038;2022-07-29T03:32:40;14.79;60.74
52297;DHT22;38244;51.046;17.038;2022-07-29T03:35:07;14.87;60.85
52297;DHT22;38244;51.046;17.038;2022-07-29T03:37:34;14.92;60.92
52297;DHT22;38244;51.046;17.038;2022-07-29T03:40:06;14.96;60.77
52297;DHT22;38244;51.046;17.038;2022-07-29T03:42:35;14.96;60.76
52297;DHT22;38244;51.046;17.038;2022-07-29T03:45:07;15.03;60.65
52297;DHT22;38244;51.046;17.038;2022-07-29T03:51:01;15.22;60.16
52297;DHT22;38244;51.046;17.038;2022-07-29T03:53:27;15.33;60.09
52297;DHT22;38244;51.046;17.038;2022-07-29T03:55:58;15.39;59.91
52297;DHT22;38244;51.046;17.038;2022-07-29T03:58:27;15.47;59.79
52297;DHT22;38244;51.046;17.038;2022-07-29T04:00:54;15.60;59.56
52297;DHT22;38244;51.046;17.038;2022-07-29T04:03:25;15.71;59.30
52297;DHT22;38244;51.046;17.038;2022-07-29T04:06:04;15.82;59.16
52297;DHT22;38244;51.046;17.038;2022-07-29T04:08:34;16.06;58.74
52297;DHT22;38244;51.046;17.038;2022-07-29T04:11:01;16.30;58.22
52297;DHT22;38244;51.046;17.038;2022-07-29T04:13:28;16.69;57.60
52297;DHT22;38244;51.046;17.038;2022-07-29T04:15:54;17.59;55.76
52297;DHT22;38244;51.046;17.038;2022-07-29T04:18:20;18.73;53.02
52297;DHT22;38244;51.046;17.038;2022-07-29T04:20:47;20.01;50.01
52297;DHT22;38244;51.046;17.038;2022-07-29T04:23:13;21.29;47.55
52297;DHT22;38244;51.046;17.038;2022-07-29T04:25:40;22.45;44.61
52297;DHT22;38244;51.046;17.038;2022-07-29T04:28:07;23.49;42.34
52297;DHT22;38244;51.046;17.038;2022-07-29T04:30:36;24.48;40.20
52297;DHT22;38244;51.046;17.038;2022-07-29T04:33:05;25.40;38.75
52297;DHT22;38244;51.046;17.038;2022-07-29T04:35:35;26.35;37.23
52297;DHT22;38244;51.046;17.038;2022-07-29T04:38:02;27.36;35.60
52297;DHT22;38244;51.046;17.038;2022-07-29T04:40:28;28.30;33.77
52297;DHT22;38244;51.046;17.038;2022-07-29T04:42:55;29.24;32.36
52297;DHT22;38244;51.046;17.038;2022-07-29T04:45:24;30.07;30.69
52297;DHT22;38244;51.046;17.038;2022-07-29T04:47:50;30.83;29.78
52297;DHT22;38244;51.046;17.038;2022-07-29T04:50:16;31.52;28.35
52297;DHT22;38244;51.046;17.038;2022-07-29T04:52:43;31.84;27.58
52297;DHT22;38244;51.046;17.038;2022-07-29T04:55:09;32.39;27.12
52297;DHT22;38244;51.046;17.038;2022-07-29T04:57:35;33.04;25.91
52297;DHT22;38244;51.046;17.038;2022-07-29T05:00:03;33.58;25.25
52297;DHT22;38244;51.046;17.038;2022-07-29T05:02:30;33.62;25.26
52297;DHT22;38244;51.046;17.038;2022-07-29T05:04:56;33.14;25.22
52297;DHT22;38244;51.046;17.038;2022-07-29T05:07:23;32.56;25.97
52297;DHT22;38244;51.046;17.038;2022-07-29T05:09:49;32.11;26.43
52297;DHT22;38244;51.046;17.038;2022-07-29T05:12:16;31.98;26.70
52297;DHT22;38244;51.046;17.038;2022-07-29T05:14:42;32.03;26.58
52297;DHT22;38244;51.046;17.038;2022-07-29T05:17:08;32.13;26.31
52297;DHT22;38244;51.046;17.038;2022-07-29T05:19:34;31.80;26.42
52297;DHT22;38244;51.046;17.038;2022-07-29T05:22:01;30.90;27.30
52297;DHT22;38244;51.046;17.038;2022-07-29T05:24:27;29.81;28.59
52297;DHT22;38244;51.046;17.038;2022-07-29T05:26:53;28.72;30.11
52297;DHT22;38244;51.046;17.038;2022-07-29T05:29:19;27.82;31.40
52297;DHT22;38244;51.046;17.038;2022-07-29T05:31:46;27.01;33.03
52297;DHT22;38244;51.046;17.038;2022-07-29T05:34:12;26.36;33.65
52297;DHT22;38244;51.046;17.038;2022-07-29T05:36:38;25.87;34.77
52297;DHT22;38244;51.046;17.038;2022-07-29T05:39:04;26.33;35.08
52297;DHT22;38244;51.046;17.038;2022-07-29T05:41:34;27.74;33.35
52297;DHT22;38244;51.046;17.038;2022-07-29T05:44:00;28.72;31.86
52297;DHT22;38244;51.046;17.038;2022-07-29T05:46:26;28.92;31.07
52297;DHT22;38244;51.046;17.038;2022-07-29T05:49:11;28.48;31.20
52297;DHT22;38244;51.046;17.038;2022-07-29T05:51:37;27.81;32.25
52297;DHT22;38244;51.046;17.038;2022-07-29T05:54:04;27.46;32.77
52297;DHT22;38244;51.046;17.038;2022-07-29T05:56:30;27.74;32.55
52297;DHT22;38244;51.046;17.038;2022-07-29T05:59:39;27.75;32.51
52297;DHT22;38244;51.046;17.038;2022-07-29T06:02:02;27.44;32.70
52297;DHT22;38244;51.046;17.038;2022-07-29T06:04:31;27.08;33.26
52297;DHT22;38244;51.046;17.038;2022-07-29T06:06:58;26.92;33.89
52297;DHT22;38244;51.046;17.038;2022-07-29T06:09:26;26.95;33.72
52297;DHT22;38244;51.046;17.038;2022-07-29T06:11:53;27.16;33.70
52297;DHT22;38244;51.046;17.038;2022-07-29T06:14:19;27.67;33.24
52297;DHT22;38244;51.046;17.038;2022-07-29T06:16:45;28.46;32.03
52297;DHT22;38244;51.046;17.038;2022-07-29T06:19:11;29.24;31.01
52297;DHT22;38244;51.046;17.038;2022-07-29T06:21:43;30.02;30.15
52297;DHT22;38244;51.046;17.038;2022-07-29T06:24:15;30.90;29.13
52297;DHT22;38244;51.046;17.038;2022-07-29T06:26:40;31.75;27.51
52297;DHT22;38244;51.046;17.038;2022-07-29T06:29:43;32.49;26.71
52297;DHT22;38244;51.046;17.038;2022-07-29T06:32:10;33.06;26.18
52297;DHT22;38244;51.046;17.038;2022-07-29T06:34:36;33.15;25.54
52297;DHT22;38244;51.046;17.038;2022-07-29T06:37:09;32.80;25.68
52297;DHT22;38244;51.046;17.038;2022-07-29T06:39:36;32.13;26.41
52297;DHT22;38244;51.046;17.038;2022-07-29T06:42:04;31.71;27.08
52297;DHT22;38244;51.046;17.038;2022-07-29T06:44:31;31.49;27.37
52297;DHT22;38244;51.046;17.038;2022-07-29T06:47:00;31.69;27.39
52297;DHT22;38244;51.046;17.038;2022-07-29T06:49:29;32.17;26.71
52297;DHT22;38244;51.046;17.038;2022-07-29T06:51:55;32.43;26.35
52297;DHT22;38244;51.046;17.038;2022-07-29T06:54:22;32.42;26.28
52297;DHT22;38244;51.046;17.038;2022-07-29T06:56:48;32.21;26.18
52297;DHT22;38244;51.046;17.038;2022-07-29T06:59:35;31.69;26.85
52297;DHT22;38244;51.046;17.038;2022-07-29T07:02:07;31.25;27.50
52297;DHT22;38244;51.046;17.038;2022-07-29T07:07:04;30.54;28.01
52297;DHT22;38244;51.046;17.038;2022-07-29T07:09:30;30.17;28.68
52297;DHT22;38244;51.046;17.038;2022-07-29T07:11:56;30.02;29.12
52297;DHT22;38244;51.046;17.038;2022-07-29T07:14:22;30.37;28.91
52297;DHT22;38244;51.046;17.038;2022-07-29T07:16:48;31.10;28.14
52297;DHT22;38244;51.046;17.038;2022-07-29T07:19:15;32.06;27.52
52297;DHT22;38244;51.046;17.038;2022-07-29T07:21:41;33.41;25.81
52297;DHT22;38244;51.046;17.038;2022-07-29T07:24:07;34.15;24.61
52297;DHT22;38244;51.046;17.038;2022-07-29T07:28:59;33.92;24.79
52297;DHT22;38244;51.046;17.038;2022-07-29T07:31:26;33.75;25.06
52297;DHT22;38244;51.046;17.038;2022-07-29T07:33:52;33.69;25.44
52297;DHT22;38244;51.046;17.038;2022-07-29T07:36:19;33.65;25.35
52297;DHT22;38244;51.046;17.038;2022-07-29T07:38:45;33.44;25.40
52297;DHT22;38244;51.046;17.038;2022-07-29T07:41:12;32.91;25.89
52297;DHT22;38244;51.046;17.038;2022-07-29T07:43:38;32.59;26.39
52297;DHT22;38244;51.046;17.038;2022-07-29T07:46:04;32.49;26.66
52297;DHT22;38244;51.046;17.038;2022-07-29T07:48:31;32.66;26.79
52297;DHT22;38244;51.046;17.038;2022-07-29T07:50:57;33.14;26.38
52297;DHT22;38244;51.046;17.038;2022-07-29T07:53:23;33.21;26.16
52297;DHT22;38244;51.046;17.038;2022-07-29T07:55:49;33.17;26.04
52297;DHT22;38244;51.046;17.038;2022-07-29T07:58:19;32.97;26.28
52297;DHT22;38244;51.046;17.038;2022-07-29T08:00:45;32.67;26.62
52297;DHT22;38244;51.046;17.038;2022-07-29T08:03:11;32.39;27.05
52297;DHT22;38244;51.046;17.038;2022-07-29T08:05:41;32.20;27.31
52297;DHT22;38244;51.046;17.038;2022-07-29T08:08:07;32.04;27.75
52297;DHT22;38244;51.046;17.038;2022-07-29T08:10:33;32.00;27.85
52297;DHT22;38244;51.046;17.038;2022-07-29T08:13:20;31.90;28.04
52297;DHT22;38244;51.046;17.038;2022-07-29T08:15:49;31.90;28.04
52297;DHT22;38244;51.046;17.038;2022-07-29T08:18:31;32.11;28.00
52297;DHT22;38244;51.046;17.038;2022-07-29T08:20:58;32.51;27.63
52297;DHT22;38244;51.046;17.038;2022-07-29T08:23:24;32.56;27.34
52297;DHT22;38244;51.046;17.038;2022-07-29T08:25:52;32.25;27.81
52297;DHT22;38244;51.046;17.038;2022-07-29T08:28:19;31.98;28.26
52297;DHT22;38244;51.046;17.038;2022-07-29T08:30:47;31.98;28.33
52297;DHT22;38244;51.046;17.038;2022-07-29T08:33:13;31.83;28.43
52297;DHT22;38244;51.046;17.038;2022-07-29T08:35:39;31.65;28.97
52297;DHT22;38244;51.046;17.038;2022-07-29T08:38:06;31.46;29.15
52297;DHT22;38244;51.046;17.038;2022-07-29T08:40:32;31.41;29.30
52297;DHT22;38244;51.046;17.038;2022-07-29T08:43:05;31.25;29.19
52297;DHT22;38244;51.046;17.038;2022-07-29T08:45:46;30.86;29.79
52297;DHT22;38244;51.046;17.038;2022-07-29T08:48:14;30.69;30.10
52297;DHT22;38244;51.046;17.038;2022-07-29T08:50:43;30.82;30.36
52297;DHT22;38244;51.046;17.038;2022-07-29T08:53:16;31.11;29.95
52297;DHT22;38244;51.046;17.038;2022-07-29T08:55:48;31.18;29.95
52297;DHT22;38244;51.046;17.038;2022-07-29T08:58:36;31.58;29.72
52297;DHT22;38244;51.046;17.038;2022-07-29T09:01:02;32.62;28.19
52297;DHT22;38244;51.046;17.038;2022-07-29T09:03:35;32.99;27.77
52297;DHT22;38244;51.046;17.038;2022-07-29T09:06:02;33.45;27.60
52297;DHT22;38244;51.046;17.038;2022-07-29T09:08:32;33.99;26.75
52297;DHT22;38244;51.046;17.038;2022-07-29T09:11:01;34.31;26.40
52297;DHT22;38244;51.046;17.038;2022-07-29T09:13:30;34.43;26.14
52297;DHT22;38244;51.046;17.038;2022-07-29T09:15:57;34.45;26.39
52297;DHT22;38244;51.046;17.038;2022-07-29T09:18:40;35.25;25.40
52297;DHT22;38244;51.046;17.038;2022-07-29T09:21:10;35.69;24.85
52297;DHT22;38244;51.046;17.038;2022-07-29T09:24:11;36.00;24.66
52297;DHT22;38244;51.046;17.038;2022-07-29T09:26:41;36.07;24.27
52297;DHT22;38244;51.046;17.038;2022-07-29T09:29:18;35.84;24.63
52297;DHT22;38244;51.046;17.038;2022-07-29T09:31:50;35.56;24.72
52297;DHT22;38244;51.046;17.038;2022-07-29T09:36:52;34.36;26.26
52297;DHT22;38244;51.046;17.038;2022-07-29T09:39:37;33.72;26.93
52297;DHT22;38244;51.046;17.038;2022-07-29T09:42:06;33.03;27.78
52297;DHT22;38244;51.046;17.038;2022-07-29T09:44:44;32.27;28.91
52297;DHT22;38244;51.046;17.038;2022-07-29T09:47:10;31.63;29.83
52297;DHT22;38244;51.046;17.038;2022-07-29T09:52:20;31.09;30.95
52297;DHT22;38244;51.046;17.038;2022-07-29T09:54:47;30.73;31.60
52297;DHT22;38244;51.046;17.038;2022-07-29T09:57:28;30.55;31.82
52297;DHT22;38244;51.046;17.038;2022-07-29T10:00:00;30.26;32.26
52297;DHT22;38244;51.046;17.038;2022-07-29T10:02:30;30.09;32.79
52297;DHT22;38244;51.046;17.038;2022-07-29T10:04:56;29.95;32.88
52297;DHT22;38244;51.046;17.038;2022-07-29T10:07:23;29.79;33.39
52297;DHT22;38244;51.046;17.038;2022-07-29T10:09:53;29.59;33.63
52297;DHT22;38244;51.046;17.038;2022-07-29T10:12:20;29.52;33.78
52297;DHT22;38244;51.046;17.038;2022-07-29T10:14:47;29.44;33.91
52297;DHT22;38244;51.046;17.038;2022-07-29T10:17:16;29.34;33.97
52297;DHT22;38244;51.046;17.038;2022-07-29T10:19:43;29.44;33.92
52297;DHT22;38244;51.046;17.038;2022-07-29T10:22:12;29.38;34.00
52297;DHT22;38244;51.046;17.038;2022-07-29T10:24:38;29.29;34.31
52297;DHT22;38244;51.046;17.038;2022-07-29T10:27:08;29.36;34.15
52297;DHT22;38244;51.046;17.038;2022-07-29T10:29:35;29.45;34.01
52297;DHT22;38244;51.046;17.038;2022-07-29T10:32:29;29.48;34.15
52297;DHT22;38244;51.046;17.038;2022-07-29T10:41:23;29.91;33.41
52297;DHT22;38244;51.046;17.038;2022-07-29T10:44:06;29.99;33.68
52297;DHT22;38244;51.046;17.038;2022-07-29T10:46:38;30.10;33.59
52297;DHT22;38244;51.046;17.038;2022-07-29T10:49:41;29.99;33.86
52297;DHT22;38244;51.046;17.038;2022-07-29T10:52:12;29.97;33.84
52297;DHT22;38244;51.046;17.038;2022-07-29T10:54:46;30.03;33.79
52297;DHT22;38244;51.046;17.038;2022-07-29T10:57:25;30.13;33.64
52297;DHT22;38244;51.046;17.038;2022-07-29T11:02:41;30.38;33.01
52297;DHT22;38244;51.046;17.038;2022-07-29T11:05:17;30.39;33.05
52297;DHT22;38244;51.046;17.038;2022-07-29T11:08:18;30.54;32.79
52297;DHT22;38244;51.046;17.038;2022-07-29T11:10:48;30.50;32.64
52297;DHT22;38244;51.046;17.038;2022-07-29T11:13:57;30.45;32.84
52297;DHT22;38244;51.046;17.038;2022-07-29T11:16:25;30.63;32.41
52297;DHT22;38244;51.046;17.038;2022-07-29T11:21:43;30.90;31.91
52297;DHT22;38244;51.046;17.038;2022-07-29T11:24:14;30.93;31.95
52297;DHT22;38244;51.046;17.038;2022-07-29T11:26:42;30.86;31.84
52297;DHT22;38244;51.046;17.038;2022-07-29T11:29:19;30.86;31.99
52297;DHT22;38244;51.046;17.038;2022-07-29T11:31:52;30.85;31.94
52297;DHT22;38244;51.046;17.038;2022-07-29T11:34:30;30.73;31.88
52297;DHT22;38244;51.046;17.038;2022-07-29T11:40:10;30.54;32.12
52297;DHT22;38244;51.046;17.038;2022-07-29T11:45:02;30.31;32.41
52297;DHT22;38244;51.046;17.038;2022-07-29T11:47:48;30.27;32.45
52297;DHT22;38244;51.046;17.038;2022-07-29T11:50:26;30.23;32.54
52297;DHT22;38244;51.046;17.038;2022-07-29T11:52:47;30.11;32.64
52297;DHT22;38244;51.046;17.038;2022-07-29T11:55:17;30.07;32.65
52297;DHT22;38244;51.046;17.038;2022-07-29T11:58:00;30.13;32.45
52297;DHT22;38244;51.046;17.038;2022-07-29T12:00:32;30.23;32.41
52297;DHT22;38244;51.046;17.038;2022-07-29T12:03:06;30.35;32.38
52297;DHT22;38244;51.046;17.038;2022-07-29T12:05:40;30.45;32.32
52297;DHT22;38244;51.046;17.038;2022-07-29T12:08:12;30.54;32.25
52297;DHT22;38244;51.046;17.038;2022-07-29T12:10:43;30.55;32.06
52297;DHT22;38244;51.046;17.038;2022-07-29T12:13:19;30.48;32.31
52297;DHT22;38244;51.046;17.038;2022-07-29T12:15:57;30.41;32.52
52297;DHT22;38244;51.046;17.038;2022-07-29T12:18:26;30.48;32.48
52297;DHT22;38244;51.046;17.038;2022-07-29T12:21:05;30.59;32.19
52297;DHT22;38244;51.046;17.038;2022-07-29T12:23:37;30.56;32.30
52297;DHT22;38244;51.046;17.038;2022-07-29T12:26:03;30.51;32.28
52297;DHT22;38244;51.046;17.038;2022-07-29T12:28:28;30.48;32.41
52297;DHT22;38244;51.046;17.038;2022-07-29T12:30:55;30.38;32.82
52297;DHT22;38244;51.046;17.038;2022-07-29T12:33:27;30.44;32.88
52297;DHT22;38244;51.046;17.038;2022-07-29T12:36:00;30.59;32.46
52297;DHT22;38244;51.046;17.038;2022-07-29T12:38:27;30.70;32.18
52297;DHT22;38244;51.046;17.038;2022-07-29T12:40:55;30.72;32.23
52297;DHT22;38244;51.046;17.038;2022-07-29T12:43:24;30.69;32.35
52297;DHT22;38244;51.046;17.038;2022-07-29T12:45:56;30.66;32.31
52297;DHT22;38244;51.046;17.038;2022-07-29T12:51:00;30.58;32.39
52297;DHT22;38244;51.046;17.038;2022-07-29T12:53:28;30.45;32.93
52297;DHT22;38244;51.046;17.038;2022-07-29T12:55:57;30.43;32.75
52297;DHT22;38244;51.046;17.038;2022-07-29T12:58:40;30.48;32.83
52297;DHT22;38244;51.046;17.038;2022-07-29T13:01:15;30.52;32.92
52297;DHT22;38244;51.046;17.038;2022-07-29T13:03:46;30.65;32.65
52297;DHT22;38244;51.046;17.038;2022-07-29T13:06:40;30.58;32.63
52297;DHT22;38244;51.046;17.038;2022-07-29T13:12:11;30.59;32.92
52297;DHT22;38244;51.046;17.038;2022-07-29T13:17:12;30.54;32.83
52297;DHT22;38244;51.046;17.038;2022-07-29T13:19:51;30.38;33.14
52297;DHT22;38244;51.046;17.038;2022-07-29T13:22:40;30.26;33.45
52297;DHT22;38244;51.046;17.038;2022-07-29T13:25:09;30.30;33.35
52297;DHT22;38244;51.046;17.038;2022-07-29T13:27:39;30.18;33.76
52297;DHT22;38244;51.046;17.038;2022-07-29T13:30:10;30.10;33.85
52297;DHT22;38244;51.046;17.038;2022-07-29T13:35:06;30.16;33.60
52297;DHT22;38244;51.046;17.038;2022-07-29T13:37:52;30.13;33.87
52297;DHT22;38244;51.046;17.038;2022-07-29T13:40:18;30.13;33.90
52297;DHT22;38244;51.046;17.038;2022-07-29T13:42:45;30.26;33.55
52297;DHT22;38244;51.046;17.038;2022-07-29T13:45:11;30.24;33.89
52297;DHT22;38244;51.046;17.038;2022-07-29T13:47:37;30.24;33.97
52297;DHT22;38244;51.046;17.038;2022-07-29T13:50:06;30.37;33.88
52297;DHT22;38244;51.046;17.038;2022-07-29T13:52:33;30.43;33.46
52297;DHT22;38244;51.046;17.038;2022-07-29T13:55:00;30.41;33.53
52297;DHT22;38244;51.046;17.038;2022-07-29T13:57:27;30.28;33.68
52297;DHT22;38244;51.046;17.038;2022-07-29T13:59:54;30.18;33.64
52297;DHT22;38244;51.046;17.038;2022-07-29T14:02:21;30.06;33.98
52297;DHT22;38244;51.046;17.038;2022-07-29T14:04:47;29.96;34.22
52297;DHT22;38244;51.046;17.038;2022-07-29T14:07:13;29.97;34.22
52297;DHT22;38244;51.046;17.038;2022-07-29T14:09:40;29.92;34.24
52297;DHT22;38244;51.046;17.038;2022-07-29T14:12:07;29.93;34.42
52297;DHT22;38244;51.046;17.038;2022-07-29T14:14:33;29.97;34.48
52297;DHT22;38244;51.046;17.038;2022-07-29T14:17:01;29.91;34.53
52297;DHT22;38244;51.046;17.038;2022-07-29T14:19:28;29.75;34.71
52297;DHT22;38244;51.046;17.038;2022-07-29T14:21:55;29.61;34.95
52297;DHT22;38244;51.046;17.038;2022-07-29T14:24:21;29.45;35.31
52297;DHT22;38244;51.046;17.038;2022-07-29T14:26:47;29.30;35.44
52297;DHT22;38244;51.046;17.038;2022-07-29T14:29:13;29.29;35.66
52297;DHT22;38244;51.046;17.038;2022-07-29T14:31:42;29.24;35.66
52297;DHT22;38244;51.046;17.038;2022-07-29T14:34:12;29.20;35.57
52297;DHT22;38244;51.046;17.038;2022-07-29T14:36:38;29.10;35.82
52297;DHT22;38244;51.046;17.038;2022-07-29T14:39:23;29.06;35.88
52297;DHT22;38244;51.046;17.038;2022-07-29T14:41:50;28.98;36.26
52297;DHT22;38244;51.046;17.038;2022-07-29T14:44:17;28.92;36.35
52297;DHT22;38244;51.046;17.038;2022-07-29T14:46:44;28.88;36.37
52297;DHT22;38244;51.046;17.038;2022-07-29T14:49:31;28.88;36.39
52297;DHT22;38244;51.046;17.038;2022-07-29T14:51:57;28.81;36.28
52297;DHT22;38244;51.046;17.038;2022-07-29T14:54:23;28.63;36.72
52297;DHT22;38244;51.046;17.038;2022-07-29T14:56:49;28.52;36.76
52297;DHT22;38244;51.046;17.038;2022-07-29T14:59:17;28.41;36.98
52297;DHT22;38244;51.046;17.038;2022-07-29T15:01:43;28.34;37.43
52297;DHT22;38244;51.046;17.038;2022-07-29T15:04:09;28.37;37.65
52297;DHT22;38244;51.046;17.038;2022-07-29T15:06:35;28.34;37.50
52297;DHT22;38244;51.046;17.038;2022-07-29T15:09:02;28.30;37.50
52297;DHT22;38244;51.046;17.038;2022-07-29T15:11:28;28.18;37.87
52297;DHT22;38244;51.046;17.038;2022-07-29T15:13:55;28.15;37.66
52297;DHT22;38244;51.046;17.038;2022-07-29T15:16:23;28.06;37.64
52297;DHT22;38244;51.046;17.038;2022-07-29T15:18:55;27.95;37.99
52297;DHT22;38244;51.046;17.038;2022-07-29T15:21:23;27.89;38.12
52297;DHT22;38244;51.046;17.038;2022-07-29T15:23:50;27.82;38.74
52297;DHT22;38244;51.046;17.038;2022-07-29T15:26:16;27.78;38.77
52297;DHT22;38244;51.046;17.038;2022-07-29T15:29:21;27.74;38.99
52297;DHT22;38244;51.046;17.038;2022-07-29T15:31:48;27.79;39.12
52297;DHT22;38244;51.046;17.038;2022-07-29T15:34:14;27.88;38.97
52297;DHT22;38244;51.046;17.038;2022-07-29T15:36:40;27.96;38.90
52297;DHT22;38244;51.046;17.038;2022-07-29T15:39:07;27.91;39.00
52297;DHT22;38244;51.046;17.038;2022-07-29T15:41:34;27.87;38.90
52297;DHT22;38244;51.046;17.038;2022-07-29T15:44:00;27.79;39.00
52297;DHT22;38244;51.046;17.038;2022-07-29T15:46:26;27.68;39.07
52297;DHT22;38244;51.046;17.038;2022-07-29T15:52:06;27.51;39.52
52297;DHT22;38244;51.046;17.038;2022-07-29T15:54:35;27.49;39.69
52297;DHT22;38244;51.046;17.038;2022-07-29T15:57:03;27.42;39.79
52297;DHT22;38244;51.046;17.038;2022-07-29T15:59:30;27.30;40.13
52297;DHT22;38244;51.046;17.038;2022-07-29T16:01:56;27.23;40.19
52297;DHT22;38244;51.046;17.038;2022-07-29T16:04:23;27.22;41.63
52297;DHT22;38244;51.046;17.038;2022-07-29T16:06:49;27.20;43.23
52297;DHT22;38244;51.046;17.038;2022-07-29T16:09:16;27.15;43.75
52297;DHT22;38244;51.046;17.038;2022-07-29T16:11:43;27.06;44.50
52297;DHT22;38244;51.046;17.038;2022-07-29T16:14:11;26.99;44.84
52297;DHT22;38244;51.046;17.038;2022-07-29T16:16:37;26.90;44.98
52297;DHT22;38244;51.046;17.038;2022-07-29T16:19:04;26.83;45.35
52297;DHT22;38244;51.046;17.038;2022-07-29T16:21:31;26.73;45.61
52297;DHT22;38244;51.046;17.038;2022-07-29T16:23:58;26.64;45.68
52297;DHT22;38244;51.046;17.038;2022-07-29T16:26:26;26.56;45.89
52297;DHT22;38244;51.046;17.038;2022-07-29T16:32:15;26.54;46.09
52297;DHT22;38244;51.046;17.038;2022-07-29T16:34:41;26.56;46.23
52297;DHT22;38244;51.046;17.038;2022-07-29T16:37:08;26.47;46.76
52297;DHT22;38244;51.046;17.038;2022-07-29T16:39:34;26.40;47.16
52297;DHT22;38244;51.046;17.038;2022-07-29T16:42:00;26.33;47.30
52297;DHT22;38244;51.046;17.038;2022-07-29T16:44:26;26.31;47.05
52297;DHT22;38244;51.046;17.038;2022-07-29T16:46:52;26.26;46.90
52297;DHT22;38244;51.046;17.038;2022-07-29T16:49:18;26.23;47.25